KLYO/LYO METAR and TAF weather

Enter ICAO airport designator
Station Type Date Time Source
KLYO METAR 2021/09/20 04:55 UTC NOAA

KLYO 200455Z AUTO 16017G23KT 10SM CLR 26/16 A2976 RMK AO2 T02550161


Station Type Date Time Source
KLYO Decoded METAR 2021/09/20 04:55 UTC NOAA

Station name not available
Sep 20, 2021 - 12:55 AM EDT / 2021.09.20 0455 UTC
Wind: from the SSE (160 degrees) at 20 MPH (17 KT) gusting to 26 MPH (23 KT):0
Visibility: 10 mile(s):0
Sky conditions: clear
Temperature: 77.9 F (25.5 C)
Dew Point: 61.0 F (16.1 C)
Relative Humidity: 56%
Pressure (altimeter): 29.76 in. Hg (1007 hPa)
ob: KLYO 200455Z AUTO 16017G23KT 10SM CLR 26/16 A2976 RMK AO2 T02550161
cycle: 5

Station Type Date Time Source
KLYO TAF UTC NOAA

Error!

Example: see airport list